createdAt,value
2019-03-30T00:02:04.858Z,101393.16
2019-03-30T00:04:33.309Z,101392.96
2019-03-30T00:07:01.623Z,101387.06
2019-03-30T00:09:30.654Z,101386.75
2019-03-30T00:11:58.979Z,101388.63
2019-03-30T00:14:27.389Z,101389.75
2019-03-30T00:16:56.000Z,101383.36
2019-03-30T00:19:34.808Z,101385.61
2019-03-30T00:21:54.789Z,101384.97
2019-03-30T00:24:23.256Z,101390.48
2019-03-30T00:26:51.679Z,101388.03
2019-03-30T00:29:20.172Z,101384.27
2019-03-30T00:31:48.580Z,101385.39
2019-03-30T00:34:17.043Z,101385.56
2019-03-30T00:36:45.349Z,101382.67
2019-03-30T00:39:13.801Z,101381.16
2019-03-30T00:41:42.190Z,101378.60
2019-03-30T00:44:10.687Z,101387.91
2019-03-30T00:46:39.112Z,101379.72
2019-03-30T00:49:07.525Z,101379.41
2019-03-30T00:51:35.948Z,101381.66
2019-03-30T00:54:04.468Z,101378.38
2019-03-30T00:56:35.333Z,101380.01
2019-03-30T00:59:04.307Z,101367.61
2019-03-30T01:01:32.740Z,101367.57
2019-03-30T01:04:01.306Z,101370.80
2019-03-30T01:06:29.824Z,101368.87
2019-03-30T01:08:58.198Z,101362.06
2019-03-30T01:11:26.510Z,101364.14
2019-03-30T01:13:55.857Z,101362.72
2019-03-30T01:16:24.350Z,101359.07
2019-03-30T01:18:53.413Z,101364.78
2019-03-30T01:21:22.053Z,101364.95
2019-03-30T01:23:51.145Z,101371.63
2019-03-30T01:26:21.522Z,101365.59
2019-03-30T01:28:49.886Z,101359.57
2019-03-30T01:31:18.379Z,101361.34
2019-03-30T01:33:47.277Z,101360.20
2019-03-30T01:36:15.714Z,101362.99
2019-03-30T01:38:44.018Z,101357.61
2019-03-30T01:41:12.590Z,101349.60
2019-03-30T01:43:41.098Z,101347.22
2019-03-30T01:46:10.856Z,101346.95
2019-03-30T01:48:39.175Z,101346.58
2019-03-30T01:51:07.739Z,101347.89
2019-03-30T01:53:36.208Z,101341.02
2019-03-30T01:56:04.879Z,101344.86
2019-03-30T01:58:44.716Z,101344.07
2019-03-30T02:01:13.515Z,101351.33
2019-03-30T02:03:42.512Z,101349.84
2019-03-30T02:06:11.180Z,101342.73
2019-03-30T02:08:39.636Z,101339.72
2019-03-30T02:11:09.308Z,101336.61
2019-03-30T02:13:38.372Z,101344.97
2019-03-30T02:16:06.810Z,101347.67
2019-03-30T02:18:35.295Z,101348.70
2019-03-30T02:21:04.733Z,101338.55
2019-03-30T02:23:33.238Z,101340.03
2019-03-30T02:26:01.840Z,101339.73
2019-03-30T02:28:30.352Z,101335.58
2019-03-30T02:30:59.001Z,101331.92
2019-03-30T02:33:27.330Z,101324.98
2019-03-30T02:35:55.936Z,101333.61
2019-03-30T02:38:24.430Z,101334.58
2019-03-30T02:40:53.669Z,101334.81
2019-03-30T02:43:22.096Z,101332.19
2019-03-30T02:45:50.585Z,101326.02
2019-03-30T02:48:18.875Z,101332.19
2019-03-30T02:50:50.527Z,101331.81
2019-03-30T02:53:17.828Z,101324.49
2019-03-30T02:55:46.531Z,101319.80
2019-03-30T02:58:14.931Z,101321.76
2019-03-30T03:00:43.498Z,101321.06
2019-03-30T03:03:11.948Z,101314.19
2019-03-30T03:05:41.450Z,101310.42
2019-03-30T03:08:09.911Z,101304.69
2019-03-30T03:10:39.186Z,101309.17
2019-03-30T03:13:07.612Z,101304.09
2019-03-30T03:15:36.075Z,101302.95
2019-03-30T03:18:04.489Z,101300.88
2019-03-30T03:20:33.825Z,101300.22
2019-03-30T03:23:02.335Z,101295.20
2019-03-30T03:25:31.656Z,101294.83
2019-03-30T03:28:00.139Z,101297.45
2019-03-30T03:30:28.971Z,101290.98
2019-03-30T03:32:57.450Z,101287.51
2019-03-30T03:35:25.985Z,101283.57
2019-03-30T03:37:54.420Z,101281.66
2019-03-30T03:40:22.798Z,101282.38
2019-03-30T03:42:51.257Z,101282.92
2019-03-30T03:45:19.700Z,101286.95
2019-03-30T03:47:48.081Z,101287.57
2019-03-30T03:50:43.643Z,101278.18
2019-03-30T03:53:13.332Z,101277.41
2019-03-30T03:55:41.888Z,101278.06
2019-03-30T03:58:11.680Z,101280.36
2019-03-30T04:00:41.077Z,101282.22
2019-03-30T04:03:30.894Z,101273.69
2019-03-30T04:06:01.171Z,101274.69
2019-03-30T04:08:31.669Z,101272.39
2019-03-30T04:11:00.773Z,101275.08
2019-03-30T04:13:30.121Z,101274.31
2019-03-30T04:15:58.644Z,101273.55
2019-03-30T04:18:27.218Z,101279.33
2019-03-30T04:20:55.581Z,101278.11
2019-03-30T04:23:23.965Z,101272.94
2019-03-30T04:25:52.281Z,101265.17
2019-03-30T04:28:20.649Z,101266.81
2019-03-30T04:30:49.091Z,101271.06
2019-03-30T04:33:17.574Z,101266.36
2019-03-30T04:35:46.033Z,101263.74
2019-03-30T04:38:14.758Z,101264.28
2019-03-30T04:40:43.346Z,101265.21
2019-03-30T04:43:11.801Z,101263.30
2019-03-30T04:45:40.115Z,101262.91
2019-03-30T04:48:09.400Z,101258.06
2019-03-30T04:50:37.729Z,101250.36
2019-03-30T04:53:06.129Z,101258.59
2019-03-30T04:55:34.545Z,101264.28
2019-03-30T04:58:02.913Z,101260.45
2019-03-30T05:00:31.440Z,101261.28
2019-03-30T05:03:00.620Z,101257.83
2019-03-30T05:05:31.604Z,101256.59
2019-03-30T05:08:00.389Z,101257.89
2019-03-30T05:10:28.724Z,101250.52
2019-03-30T05:12:57.257Z,101255.91
2019-03-30T05:15:26.520Z,101257.28
2019-03-30T05:17:55.092Z,101260.16
2019-03-30T05:20:23.628Z,101251.05
2019-03-30T05:22:52.078Z,101265.30
2019-03-30T05:25:20.372Z,101258.75
2019-03-30T05:27:48.918Z,101256.52
2019-03-30T05:30:17.431Z,101255.98
2019-03-30T05:32:45.889Z,101259.84
2019-03-30T05:35:14.393Z,101259.30
2019-03-30T05:37:42.909Z,101263.67
2019-03-30T05:40:11.621Z,101267.54
2019-03-30T05:42:40.365Z,101267.92
2019-03-30T05:45:08.937Z,101266.23
2019-03-30T05:47:37.480Z,101273.55
2019-03-30T05:50:06.262Z,101274.31
2019-03-30T05:52:35.786Z,101277.70
2019-03-30T05:55:05.325Z,101276.61
2019-03-30T05:57:33.777Z,101280.38
2019-03-30T06:00:02.468Z,101277.61
2019-03-30T06:02:31.540Z,101279.20
2019-03-30T06:05:03.077Z,101272.20
2019-03-30T06:07:30.258Z,101272.43
2019-03-30T06:09:58.853Z,101279.65
2019-03-30T06:12:27.475Z,101273.97
2019-03-30T06:14:55.891Z,101280.89
2019-03-30T06:17:24.400Z,101280.58
2019-03-30T06:19:52.794Z,101269.33
2019-03-30T06:22:21.729Z,101275.78
2019-03-30T06:24:50.183Z,101271.46
2019-03-30T06:27:18.615Z,101268.35
2019-03-30T06:30:13.931Z,101268.95
2019-03-30T06:32:42.499Z,101264.63
2019-03-30T06:35:11.052Z,101258.02
2019-03-30T06:37:39.763Z,101261.72
2019-03-30T06:40:09.134Z,101255.28
2019-03-30T06:42:37.570Z,101260.61
2019-03-30T06:45:06.212Z,101254.47
2019-03-30T06:47:34.701Z,101251.71
2019-03-30T06:50:03.386Z,101249.05
2019-03-30T06:52:32.528Z,101246.59
2019-03-30T06:55:01.981Z,101251.14
2019-03-30T06:57:30.390Z,101246.84
2019-03-30T06:59:59.060Z,101242.00
2019-03-30T07:02:27.863Z,101243.60
2019-03-30T07:04:56.747Z,101239.80
2019-03-30T07:07:25.819Z,101228.65
2019-03-30T07:09:56.125Z,101233.20
2019-03-30T07:12:25.319Z,101235.56
2019-03-30T07:14:57.827Z,101230.50
2019-03-30T07:17:26.812Z,101227.59
2019-03-30T07:19:55.392Z,101227.74
2019-03-30T07:22:23.713Z,101229.09
2019-03-30T07:24:52.182Z,101232.94
2019-03-30T07:27:20.592Z,101234.69
2019-03-30T07:29:49.168Z,101228.91
2019-03-30T07:32:17.582Z,101231.89
2019-03-30T07:34:46.087Z,101229.51
2019-03-30T07:37:14.406Z,101226.60
2019-03-30T07:39:42.763Z,101227.84
2019-03-30T07:42:11.305Z,101227.59
2019-03-30T07:44:40.299Z,101233.09
2019-03-30T07:47:08.650Z,101226.91
2019-03-30T07:49:37.040Z,101223.80
2019-03-30T07:52:05.466Z,101228.39
2019-03-30T07:54:33.869Z,101228.89
2019-03-30T07:57:06.298Z,101229.80
2019-03-30T07:59:32.658Z,101214.22
2019-03-30T08:02:01.141Z,101219.03
2019-03-30T08:04:29.438Z,101215.34
2019-03-30T08:06:57.782Z,101215.28
2019-03-30T08:09:26.237Z,101210.72
2019-03-30T08:11:54.711Z,101204.98
2019-03-30T08:14:23.101Z,101208.16
2019-03-30T08:16:51.607Z,101197.63
2019-03-30T08:19:21.799Z,101193.30
2019-03-30T08:21:50.312Z,101183.52
2019-03-30T08:24:19.432Z,101190.38
2019-03-30T08:26:47.889Z,101184.30
2019-03-30T08:29:16.198Z,101180.84
2019-03-30T08:31:44.691Z,101183.44
2019-03-30T08:34:13.803Z,101179.20
2019-03-30T08:36:42.463Z,101183.38
2019-03-30T08:39:10.848Z,101180.74
2019-03-30T08:41:39.840Z,101172.00
2019-03-30T08:44:10.716Z,101165.03
2019-03-30T08:46:39.286Z,101164.45
2019-03-30T08:49:07.627Z,101164.19
2019-03-30T08:51:35.982Z,101152.63
2019-03-30T08:54:04.400Z,101149.81
2019-03-30T08:56:32.964Z,101155.47
2019-03-30T08:59:01.383Z,101156.13
2019-03-30T09:01:30.968Z,101149.73
2019-03-30T09:03:59.357Z,101143.59
2019-03-30T09:06:27.870Z,101143.77
2019-03-30T09:08:56.290Z,101138.70
2019-03-30T09:11:24.766Z,101137.91
2019-03-30T09:13:53.096Z,101138.25
2019-03-30T09:16:21.537Z,101127.95
2019-03-30T09:18:51.073Z,101129.55
2019-03-30T09:21:19.529Z,101128.78
2019-03-30T09:23:48.002Z,101129.34
2019-03-30T09:26:16.883Z,101122.83
2019-03-30T09:28:45.510Z,101114.25
2019-03-30T09:31:13.904Z,101114.25
2019-03-30T09:33:42.330Z,101116.06
2019-03-30T09:36:10.937Z,101111.58
2019-03-30T09:38:39.216Z,101111.58
2019-03-30T09:41:07.500Z,101116.64
2019-03-30T09:43:37.492Z,101105.88
2019-03-30T09:46:07.564Z,101105.88
2019-03-30T09:48:36.942Z,101105.82
2019-03-30T09:51:05.921Z,101105.82
2019-03-30T09:53:34.587Z,101104.94
2019-03-30T09:56:03.099Z,101103.52
2019-03-30T09:58:31.680Z,101101.69
2019-03-30T10:01:00.814Z,101096.97
2019-03-30T10:03:29.295Z,101082.42
2019-03-30T10:05:57.791Z,101082.42
2019-03-30T10:08:26.337Z,101076.56
2019-03-30T10:10:55.062Z,101076.56
2019-03-30T10:13:24.229Z,101074.89
2019-03-30T10:15:52.711Z,101074.89
2019-03-30T10:18:21.182Z,101071.22
2019-03-30T10:20:49.537Z,101067.23
2019-03-30T10:23:18.023Z,101066.74
2019-03-30T10:25:46.332Z,101062.05
2019-03-30T10:28:14.920Z,101058.19
2019-03-30T10:30:43.457Z,101051.30
2019-03-30T10:33:11.854Z,101051.30
2019-03-30T10:35:40.283Z,101050.56
2019-03-30T10:38:08.651Z,101051.52
2019-03-30T10:40:36.930Z,101043.98
2019-03-30T10:43:05.501Z,101040.03
2019-03-30T10:45:33.906Z,101032.33
2019-03-30T10:48:02.440Z,101027.36
2019-03-30T10:50:30.784Z,101033.13
2019-03-30T10:52:59.205Z,101039.30
2019-03-30T10:55:28.114Z,101033.63
2019-03-30T10:57:58.597Z,101028.41
2019-03-30T11:00:52.077Z,101018.91
2019-03-30T11:03:20.448Z,101018.91
2019-03-30T11:05:49.015Z,101020.72
2019-03-30T11:08:17.512Z,101011.50
2019-03-30T11:10:45.968Z,101012.66
2019-03-30T11:13:15.007Z,101008.14
2019-03-30T11:15:43.481Z,101005.41
2019-03-30T11:18:12.068Z,101002.22
2019-03-30T11:20:40.587Z,101001.78
2019-03-30T11:23:09.022Z,100997.69
2019-03-30T11:25:37.827Z,100991.12
2019-03-30T11:28:06.455Z,100992.27
2019-03-30T11:30:35.171Z,100990.57
2019-03-30T11:33:03.653Z,100987.71
2019-03-30T11:35:32.048Z,100992.47
2019-03-30T11:38:00.565Z,100987.50
2019-03-30T11:40:29.057Z,100975.72
2019-03-30T11:42:57.442Z,100982.78
2019-03-30T11:45:25.973Z,100981.77
2019-03-30T11:47:54.978Z,100974.55
2019-03-30T11:50:23.361Z,100965.97
2019-03-30T11:52:52.667Z,100970.93
2019-03-30T11:55:22.547Z,100964.61
2019-03-30T11:57:51.123Z,100959.97
2019-03-30T12:00:19.773Z,100961.70
2019-03-30T12:02:48.189Z,100955.61
2019-03-30T12:05:16.665Z,100949.16
2019-03-30T12:07:46.429Z,100939.91
2019-03-30T12:10:15.009Z,100938.74
2019-03-30T12:12:43.412Z,100932.50
2019-03-30T12:15:12.205Z,100919.50
2019-03-30T12:17:41.246Z,100921.01
2019-03-30T12:20:10.196Z,100917.66
2019-03-30T12:22:38.932Z,100913.19
2019-03-30T12:25:08.274Z,100909.14
2019-03-30T12:27:36.546Z,100906.23
2019-03-30T12:30:05.321Z,100901.03
2019-03-30T12:32:33.745Z,100896.09
2019-03-30T12:35:03.002Z,100898.23
2019-03-30T12:37:31.299Z,100886.19
2019-03-30T12:39:59.769Z,100885.82
2019-03-30T12:42:28.215Z,100887.67
2019-03-30T12:44:56.517Z,100875.81
2019-03-30T12:47:24.950Z,100873.48
2019-03-30T12:49:53.275Z,100873.66
2019-03-30T12:52:22.279Z,100871.05
2019-03-30T12:54:50.567Z,100860.89
2019-03-30T12:57:18.999Z,100859.64
2019-03-30T12:59:48.000Z,100854.78
2019-03-30T13:02:16.370Z,100843.78
2019-03-30T13:04:44.741Z,100842.59
2019-03-30T13:07:13.281Z,100839.27
2019-03-30T13:09:41.689Z,100829.39
2019-03-30T13:12:10.124Z,100834.08
2019-03-30T13:14:38.576Z,100826.27
2019-03-30T13:17:07.047Z,100825.47
2019-03-30T13:19:38.453Z,100828.38
2019-03-30T13:22:06.865Z,100819.65
2019-03-30T13:24:35.247Z,100823.70
2019-03-30T13:27:04.387Z,100816.53
2019-03-30T13:29:35.649Z,100815.20
2019-03-30T13:32:04.076Z,100812.71
2019-03-30T13:34:32.357Z,100802.30
2019-03-30T13:37:09.343Z,100808.87
2019-03-30T13:39:37.758Z,100798.67
2019-03-30T13:42:06.099Z,100793.87
2019-03-30T13:44:34.400Z,100787.77
2019-03-30T13:47:02.886Z,100788.63
2019-03-30T13:49:31.163Z,100780.84
2019-03-30T13:52:00.099Z,100780.89
2019-03-30T13:54:28.485Z,100782.89
2019-03-30T13:56:56.799Z,100781.42
2019-03-30T13:59:25.056Z,100779.84
2019-03-30T14:01:53.649Z,100771.66
2019-03-30T14:04:22.106Z,100774.92
2019-03-30T14:06:50.442Z,100768.17
2019-03-30T14:09:18.789Z,100766.11
2019-03-30T14:11:47.174Z,100758.33
2019-03-30T14:14:15.513Z,100757.81
2019-03-30T14:16:44.593Z,100753.12
2019-03-30T14:19:12.947Z,100746.98
2019-03-30T14:21:41.337Z,100742.52
2019-03-30T14:24:09.694Z,100741.71
2019-03-30T14:26:38.090Z,100734.78
2019-03-30T14:29:06.430Z,100738.27
2019-03-30T14:31:34.694Z,100732.88
2019-03-30T14:34:04.046Z,100730.85
2019-03-30T14:36:32.330Z,100730.16
2019-03-30T14:39:00.672Z,100724.23
2019-03-30T14:41:28.962Z,100718.69
2019-03-30T14:43:57.273Z,100714.20
2019-03-30T14:46:25.786Z,100711.05
2019-03-30T14:48:54.948Z,100712.16
2019-03-30T14:51:23.214Z,100703.41
2019-03-30T14:53:51.657Z,100694.98
2019-03-30T14:56:20.030Z,100698.92
2019-03-30T14:58:48.334Z,100695.47
2019-03-30T15:01:16.695Z,100689.23
2019-03-30T15:03:45.110Z,100684.59
2019-03-30T15:06:14.111Z,100679.97
2019-03-30T15:08:43.224Z,100672.72
2019-03-30T15:11:11.984Z,100668.26
2019-03-30T15:13:40.409Z,100660.81
2019-03-30T15:16:08.814Z,100657.91
2019-03-30T15:18:37.133Z,100651.30
2019-03-30T15:21:08.537Z,100648.87
2019-03-30T15:23:36.589Z,100640.48
2019-03-30T15:26:04.964Z,100642.06
2019-03-30T15:28:33.362Z,100641.92
2019-03-30T15:31:01.622Z,100634.88
2019-03-30T15:33:30.165Z,100637.61
2019-03-30T15:35:58.412Z,100630.96
2019-03-30T15:38:27.027Z,100629.06
2019-03-30T15:40:55.912Z,100632.30
2019-03-30T15:43:37.479Z,100632.58
2019-03-30T15:45:55.768Z,100623.05
2019-03-30T15:48:24.097Z,100622.77
2019-03-30T15:50:52.590Z,100613.70
2019-03-30T15:53:20.859Z,100613.63
2019-03-30T15:55:49.381Z,100601.64
2019-03-30T15:58:17.779Z,100604.20
2019-03-30T16:00:46.309Z,100600.05
2019-03-30T16:03:14.803Z,100592.48
2019-03-30T16:05:43.234Z,100592.87
2019-03-30T16:08:11.868Z,100593.85
2019-03-30T16:10:40.312Z,100588.78
2019-03-30T16:13:08.710Z,100583.81
2019-03-30T16:15:37.081Z,100582.31
2019-03-30T16:18:05.619Z,100574.64
2019-03-30T16:20:33.985Z,100575.13
2019-03-30T16:23:02.881Z,100577.70
2019-03-30T16:25:31.441Z,100577.16
2019-03-30T16:28:00.237Z,100568.70
2019-03-30T16:30:28.675Z,100566.42
2019-03-30T16:32:57.167Z,100572.13
2019-03-30T16:35:25.693Z,100562.59
2019-03-30T16:37:53.978Z,100562.95
2019-03-30T16:40:22.404Z,100561.95
2019-03-30T16:42:50.720Z,100563.61
2019-03-30T16:45:19.065Z,100556.22
2019-03-30T16:47:47.463Z,100556.95
2019-03-30T16:50:16.066Z,100557.56
2019-03-30T16:52:44.360Z,100557.06
2019-03-30T16:55:12.866Z,100554.06
2019-03-30T16:57:43.885Z,100557.06
2019-03-30T17:00:12.102Z,100546.17
2019-03-30T17:02:40.575Z,100555.11
2019-03-30T17:05:09.925Z,100547.75
2019-03-30T17:07:38.341Z,100548.48
2019-03-30T17:10:07.529Z,100547.75
2019-03-30T17:12:35.787Z,100548.60
2019-03-30T17:15:04.523Z,100549.75
2019-03-30T17:17:34.029Z,100556.10
2019-03-30T17:20:02.894Z,100551.95
2019-03-30T17:22:32.505Z,100556.10
2019-03-30T17:25:01.150Z,100555.91
2019-03-30T17:27:29.524Z,100555.94
2019-03-30T17:29:57.852Z,100554.28
2019-03-30T17:32:26.281Z,100557.89
2019-03-30T17:34:54.796Z,100555.92
2019-03-30T17:37:23.301Z,100559.73
2019-03-30T17:39:51.716Z,100557.88
2019-03-30T17:42:20.233Z,100554.98
2019-03-30T17:44:48.649Z,100557.47
2019-03-30T17:47:17.137Z,100558.92
2019-03-30T17:49:46.478Z,100560.89
2019-03-30T17:52:14.833Z,100574.34
2019-03-30T17:54:43.139Z,100569.57
2019-03-30T17:57:11.617Z,100571.52
2019-03-30T17:59:40.141Z,100577.44
2019-03-30T18:02:08.879Z,100570.67
2019-03-30T18:04:39.032Z,100583.52
2019-03-30T18:07:07.699Z,100580.25
2019-03-30T18:09:36.237Z,100578.47
2019-03-30T18:12:04.668Z,100581.47
2019-03-30T18:14:32.955Z,100581.12
2019-03-30T18:17:01.384Z,100588.69
2019-03-30T18:19:29.781Z,100590.48
2019-03-30T18:21:58.525Z,100579.56
2019-03-30T18:24:27.048Z,100580.45
2019-03-30T18:26:55.405Z,100580.27
2019-03-30T18:29:24.079Z,100583.67
2019-03-30T18:31:52.658Z,100586.54
2019-03-30T18:34:27.467Z,100587.89
2019-03-30T18:36:56.169Z,100587.56
2019-03-30T18:39:24.693Z,100586.59
2019-03-30T18:41:53.153Z,100579.55
2019-03-30T18:44:21.684Z,100582.23
2019-03-30T18:46:50.226Z,100580.94
2019-03-30T18:49:19.238Z,100585.56
2019-03-30T18:51:48.851Z,100579.85
2019-03-30T18:54:17.771Z,100583.62
2019-03-30T18:56:46.962Z,100583.67
2019-03-30T18:59:15.420Z,100583.02
2019-03-30T19:01:43.726Z,100584.81
2019-03-30T19:04:12.613Z,100575.25
2019-03-30T19:06:40.932Z,100580.69
2019-03-30T19:09:09.804Z,100572.09
2019-03-30T19:11:38.157Z,100568.48
2019-03-30T19:14:06.637Z,100570.26
2019-03-30T19:16:35.137Z,100570.01
2019-03-30T19:19:04.585Z,100568.94
2019-03-30T19:21:32.922Z,100567.50
2019-03-30T19:24:01.425Z,100576.08
2019-03-30T19:26:29.755Z,100569.58
2019-03-30T19:28:58.191Z,100571.83
2019-03-30T19:31:27.032Z,100571.01
2019-03-30T19:33:56.223Z,100571.42
2019-03-30T19:36:32.437Z,100569.17
2019-03-30T19:39:01.371Z,100568.58
2019-03-30T19:41:29.715Z,100569.30
2019-03-30T19:43:58.080Z,100565.02
2019-03-30T19:46:26.911Z,100563.73
2019-03-30T19:48:55.512Z,100562.09
2019-03-30T19:51:23.904Z,100564.44
2019-03-30T19:53:52.521Z,100568.13
2019-03-30T19:56:21.454Z,100563.48
2019-03-30T19:58:50.063Z,100558.50
2019-03-30T20:01:18.563Z,100559.19
2019-03-30T20:03:47.074Z,100562.02
2019-03-30T20:06:15.580Z,100560.55
2019-03-30T20:08:44.152Z,100560.16
2019-03-30T20:11:12.654Z,100556.17
2019-03-30T20:13:41.029Z,100562.50
2019-03-30T20:16:09.510Z,100566.69
2019-03-30T20:18:38.002Z,100568.50
2019-03-30T20:21:06.545Z,100566.17
2019-03-30T20:23:34.942Z,100569.68
2019-03-30T20:26:03.430Z,100568.34
2019-03-30T20:28:31.886Z,100571.99
2019-03-30T20:31:00.330Z,100569.13
2019-03-30T20:33:29.452Z,100577.45
2019-03-30T20:35:57.826Z,100572.42
2019-03-30T20:38:28.869Z,100574.39
2019-03-30T20:40:57.486Z,100576.70
2019-03-30T20:43:25.899Z,100594.33
2019-03-30T20:45:54.294Z,100582.65
2019-03-30T20:48:22.611Z,100573.92
2019-03-30T20:50:50.966Z,100582.87
2019-03-30T20:53:19.292Z,100581.01
2019-03-30T20:55:47.730Z,100574.83
2019-03-30T20:58:16.156Z,100574.78
2019-03-30T21:00:44.622Z,100574.73
2019-03-30T21:03:12.966Z,100574.72
2019-03-30T21:05:41.548Z,100564.67
2019-03-30T21:08:09.859Z,100567.34
2019-03-30T21:10:38.237Z,100568.84
2019-03-30T21:13:06.557Z,100564.51
2019-03-30T21:15:34.994Z,100560.33
2019-03-30T21:18:03.508Z,100553.31
2019-03-30T21:20:32.060Z,100553.31
2019-03-30T21:23:01.015Z,100550.94
2019-03-30T21:25:29.399Z,100542.77
2019-03-30T21:27:57.856Z,100546.56
2019-03-30T21:30:26.899Z,100545.72
2019-03-30T21:32:55.348Z,100556.16
2019-03-30T21:35:24.761Z,100549.64
2019-03-30T21:37:53.171Z,100546.45
2019-03-30T21:40:21.714Z,100551.39
2019-03-30T21:42:50.047Z,100549.22
2019-03-30T21:45:18.615Z,100545.67
2019-03-30T21:47:46.943Z,100556.58
2019-03-30T21:50:15.538Z,100545.92
2019-03-30T21:52:44.041Z,100540.03
2019-03-30T21:55:12.568Z,100549.42
2019-03-30T21:57:41.031Z,100553.09
2019-03-30T22:00:11.014Z,100549.89
2019-03-30T22:02:39.974Z,100549.89
2019-03-30T22:05:08.758Z,100555.50
2019-03-30T22:07:37.527Z,100547.80
2019-03-30T22:10:07.451Z,100554.44
2019-03-30T22:12:42.160Z,100548.40
2019-03-30T22:15:12.534Z,100544.97
2019-03-30T22:17:40.999Z,100544.97
2019-03-30T22:20:09.413Z,100545.31
2019-03-30T22:22:37.924Z,100542.27
2019-03-30T22:25:06.484Z,100545.23
2019-03-30T22:27:34.937Z,100541.68
2019-03-30T22:30:03.498Z,100540.81
2019-03-30T22:32:32.023Z,100536.28
2019-03-30T22:35:00.584Z,100542.39
2019-03-30T22:37:28.993Z,100542.39
2019-03-30T22:39:57.304Z,100534.93
2019-03-30T22:42:25.789Z,100534.93
2019-03-30T22:44:54.107Z,100539.89
2019-03-30T22:47:22.578Z,100542.47
2019-03-30T22:49:51.064Z,100525.76
2019-03-30T22:52:20.480Z,100533.03
2019-03-30T22:54:49.627Z,100533.03
2019-03-30T22:57:18.137Z,100531.70
2019-03-30T22:59:46.567Z,100531.70
2019-03-30T23:02:15.097Z,100534.70
2019-03-30T23:04:43.343Z,100534.70
2019-03-30T23:07:11.618Z,100537.30
2019-03-30T23:09:39.994Z,100527.23
2019-03-30T23:12:08.341Z,100527.23
2019-03-30T23:14:38.780Z,100537.83
2019-03-30T23:17:07.375Z,100533.66
2019-03-30T23:19:35.744Z,100530.27
2019-03-30T23:22:04.956Z,100530.27
2019-03-30T23:24:33.210Z,100525.20
2019-03-30T23:27:01.502Z,100525.20
2019-03-30T23:29:29.822Z,100527.78
2019-03-30T23:31:58.038Z,100523.00
2019-03-30T23:34:26.360Z,100521.49
2019-03-30T23:36:54.625Z,100518.22
2019-03-30T23:39:23.119Z,100518.22
2019-03-30T23:41:51.444Z,100516.14
2019-03-30T23:44:20.481Z,100509.74
2019-03-30T23:46:48.754Z,100509.74
2019-03-30T23:49:18.235Z,100505.30
2019-03-30T23:51:49.617Z,100505.30
2019-03-30T23:54:18.142Z,100508.23
2019-03-30T23:56:46.413Z,100502.87
2019-03-30T23:59:15.157Z,100501.83
